sensor_id;sensor_type;location;lat;lon;timestamp;P1;durP1;ratioP1;P2;durP2;ratioP2
18076;SDS011;9165;45.714;11.362;2023-11-19T00:01:48;8.97;;;4.90;;
18076;SDS011;9165;45.714;11.362;2023-11-19T00:04:15;9.77;;;5.00;;
18076;SDS011;9165;45.714;11.362;2023-11-19T00:06:41;7.37;;;4.73;;
18076;SDS011;9165;45.714;11.362;2023-11-19T00:09:08;9.43;;;4.90;;
18076;SDS011;9165;45.714;11.362;2023-11-19T00:11:34;7.53;;;4.57;;
18076;SDS011;9165;45.714;11.362;2023-11-19T00:14:03;12.23;;;5.83;;
18076;SDS011;9165;45.714;11.362;2023-11-19T00:16:33;9.17;;;5.23;;
18076;SDS011;9165;45.714;11.362;2023-11-19T00:19:00;7.50;;;4.70;;
18076;SDS011;9165;45.714;11.362;2023-11-19T00:21:26;10.07;;;5.27;;
18076;SDS011;9165;45.714;11.362;2023-11-19T00:23:53;7.60;;;5.20;;
18076;SDS011;9165;45.714;11.362;2023-11-19T00:26:20;9.03;;;5.30;;
18076;SDS011;9165;45.714;11.362;2023-11-19T00:28:46;8.27;;;5.03;;
18076;SDS011;9165;45.714;11.362;2023-11-19T00:31:15;8.77;;;5.07;;
18076;SDS011;9165;45.714;11.362;2023-11-19T00:33:42;9.70;;;5.20;;
18076;SDS011;9165;45.714;11.362;2023-11-19T00:36:09;7.50;;;5.03;;
18076;SDS011;9165;45.714;11.362;2023-11-19T00:38:35;6.80;;;4.83;;
18076;SDS011;9165;45.714;11.362;2023-11-19T00:41:02;9.87;;;5.70;;
18076;SDS011;9165;45.714;11.362;2023-11-19T00:43:28;8.33;;;5.17;;
18076;SDS011;9165;45.714;11.362;2023-11-19T00:45:55;8.87;;;5.13;;
18076;SDS011;9165;45.714;11.362;2023-11-19T00:48:23;9.17;;;5.70;;
18076;SDS011;9165;45.714;11.362;2023-11-19T00:50:50;7.27;;;4.87;;
18076;SDS011;9165;45.714;11.362;2023-11-19T00:53:17;9.20;;;5.07;;
18076;SDS011;9165;45.714;11.362;2023-11-19T00:55:43;8.47;;;4.80;;
18076;SDS011;9165;45.714;11.362;2023-11-19T00:58:10;10.47;;;4.87;;
18076;SDS011;9165;45.714;11.362;2023-11-19T01:00:36;7.30;;;4.07;;
18076;SDS011;9165;45.714;11.362;2023-11-19T01:03:03;5.67;;;4.07;;
18076;SDS011;9165;45.714;11.362;2023-11-19T01:05:31;7.13;;;4.33;;
18076;SDS011;9165;45.714;11.362;2023-11-19T01:07:58;12.40;;;4.50;;
18076;SDS011;9165;45.714;11.362;2023-11-19T01:10:25;9.13;;;5.10;;
18076;SDS011;9165;45.714;11.362;2023-11-19T01:12:51;7.53;;;4.53;;
18076;SDS011;9165;45.714;11.362;2023-11-19T01:15:18;9.83;;;4.47;;
18076;SDS011;9165;45.714;11.362;2023-11-19T01:17:45;12.17;;;5.03;;
18076;SDS011;9165;45.714;11.362;2023-11-19T01:20:12;7.83;;;4.63;;
18076;SDS011;9165;45.714;11.362;2023-11-19T01:22:40;8.77;;;5.23;;
18076;SDS011;9165;45.714;11.362;2023-11-19T01:25:07;11.27;;;5.10;;
18076;SDS011;9165;45.714;11.362;2023-11-19T01:27:34;7.83;;;4.97;;
18076;SDS011;9165;45.714;11.362;2023-11-19T01:30:01;7.43;;;5.20;;
18076;SDS011;9165;45.714;11.362;2023-11-19T01:32:31;8.03;;;4.80;;
18076;SDS011;9165;45.714;11.362;2023-11-19T01:34:57;7.00;;;4.13;;
18076;SDS011;9165;45.714;11.362;2023-11-19T01:37:24;7.57;;;4.37;;
18076;SDS011;9165;45.714;11.362;2023-11-19T01:39:52;9.40;;;4.53;;
18076;SDS011;9165;45.714;11.362;2023-11-19T01:42:18;7.00;;;4.50;;
18076;SDS011;9165;45.714;11.362;2023-11-19T01:44:54;7.60;;;4.13;;
18076;SDS011;9165;45.714;11.362;2023-11-19T01:47:21;10.67;;;4.60;;
18076;SDS011;9165;45.714;11.362;2023-11-19T01:49:47;8.57;;;4.80;;
18076;SDS011;9165;45.714;11.362;2023-11-19T01:52:14;7.30;;;5.10;;
18076;SDS011;9165;45.714;11.362;2023-11-19T01:54:40;8.63;;;5.07;;
18076;SDS011;9165;45.714;11.362;2023-11-19T01:57:08;9.33;;;4.73;;
18076;SDS011;9165;45.714;11.362;2023-11-19T01:59:35;9.17;;;5.33;;
18076;SDS011;9165;45.714;11.362;2023-11-19T02:02:02;8.73;;;4.77;;
18076;SDS011;9165;45.714;11.362;2023-11-19T02:04:28;7.50;;;4.90;;
18076;SDS011;9165;45.714;11.362;2023-11-19T02:06:56;10.07;;;4.43;;
18076;SDS011;9165;45.714;11.362;2023-11-19T02:09:23;7.93;;;4.30;;
18076;SDS011;9165;45.714;11.362;2023-11-19T02:11:49;9.60;;;4.83;;
18076;SDS011;9165;45.714;11.362;2023-11-19T02:14:17;7.70;;;4.90;;
18076;SDS011;9165;45.714;11.362;2023-11-19T02:16:45;8.43;;;4.40;;
18076;SDS011;9165;45.714;11.362;2023-11-19T02:19:11;7.83;;;4.00;;
18076;SDS011;9165;45.714;11.362;2023-11-19T02:21:38;9.57;;;4.63;;
18076;SDS011;9165;45.714;11.362;2023-11-19T02:24:05;7.57;;;4.80;;
18076;SDS011;9165;45.714;11.362;2023-11-19T02:26:33;7.37;;;4.43;;
18076;SDS011;9165;45.714;11.362;2023-11-19T02:29:05;6.17;;;4.40;;
18076;SDS011;9165;45.714;11.362;2023-11-19T02:31:31;6.70;;;4.10;;
18076;SDS011;9165;45.714;11.362;2023-11-19T02:34:00;9.97;;;4.33;;
18076;SDS011;9165;45.714;11.362;2023-11-19T02:36:27;7.47;;;4.67;;
18076;SDS011;9165;45.714;11.362;2023-11-19T02:38:54;8.27;;;4.37;;
18076;SDS011;9165;45.714;11.362;2023-11-19T02:41:20;8.43;;;4.20;;
18076;SDS011;9165;45.714;11.362;2023-11-19T02:43:47;7.23;;;4.23;;
18076;SDS011;9165;45.714;11.362;2023-11-19T02:46:15;11.17;;;4.10;;
18076;SDS011;9165;45.714;11.362;2023-11-19T02:48:42;9.47;;;4.47;;
18076;SDS011;9165;45.714;11.362;2023-11-19T02:51:09;5.47;;;3.90;;
18076;SDS011;9165;45.714;11.362;2023-11-19T02:53:36;9.00;;;4.50;;
18076;SDS011;9165;45.714;11.362;2023-11-19T02:56:04;6.43;;;4.63;;
18076;SDS011;9165;45.714;11.362;2023-11-19T02:58:40;8.67;;;4.73;;
18076;SDS011;9165;45.714;11.362;2023-11-19T03:01:07;8.97;;;5.00;;
18076;SDS011;9165;45.714;11.362;2023-11-19T03:03:45;5.53;;;4.13;;
18076;SDS011;9165;45.714;11.362;2023-11-19T03:06:14;6.13;;;3.67;;
18076;SDS011;9165;45.714;11.362;2023-11-19T03:08:41;6.60;;;3.90;;
18076;SDS011;9165;45.714;11.362;2023-11-19T03:11:07;7.50;;;4.23;;
18076;SDS011;9165;45.714;11.362;2023-11-19T03:13:34;7.20;;;4.30;;
18076;SDS011;9165;45.714;11.362;2023-11-19T03:16:00;10.67;;;4.90;;
18076;SDS011;9165;45.714;11.362;2023-11-19T03:18:27;8.47;;;5.20;;
18076;SDS011;9165;45.714;11.362;2023-11-19T03:20:55;7.83;;;4.10;;
18076;SDS011;9165;45.714;11.362;2023-11-19T03:23:22;6.10;;;3.70;;
18076;SDS011;9165;45.714;11.362;2023-11-19T03:25:49;7.07;;;4.53;;
18076;SDS011;9165;45.714;11.362;2023-11-19T03:28:15;7.17;;;4.33;;
18076;SDS011;9165;45.714;11.362;2023-11-19T03:30:42;8.23;;;4.73;;
18076;SDS011;9165;45.714;11.362;2023-11-19T03:33:08;7.67;;;4.20;;
18076;SDS011;9165;45.714;11.362;2023-11-19T03:35:35;11.27;;;4.47;;
18076;SDS011;9165;45.714;11.362;2023-11-19T03:38:03;7.40;;;4.73;;
18076;SDS011;9165;45.714;11.362;2023-11-19T03:40:29;6.23;;;4.20;;
18076;SDS011;9165;45.714;11.362;2023-11-19T03:42:56;8.27;;;5.50;;
18076;SDS011;9165;45.714;11.362;2023-11-19T03:45:23;7.10;;;5.07;;
18076;SDS011;9165;45.714;11.362;2023-11-19T03:47:49;7.80;;;5.00;;
18076;SDS011;9165;45.714;11.362;2023-11-19T03:50:16;10.03;;;5.10;;
18076;SDS011;9165;45.714;11.362;2023-11-19T03:52:45;7.80;;;5.47;;
18076;SDS011;9165;45.714;11.362;2023-11-19T03:55:13;8.50;;;5.13;;
18076;SDS011;9165;45.714;11.362;2023-11-19T03:57:39;7.53;;;5.37;;
18076;SDS011;9165;45.714;11.362;2023-11-19T04:00:06;9.10;;;4.80;;
18076;SDS011;9165;45.714;11.362;2023-11-19T04:02:35;8.70;;;5.63;;
18076;SDS011;9165;45.714;11.362;2023-11-19T04:05:01;9.20;;;5.23;;
18076;SDS011;9165;45.714;11.362;2023-11-19T04:07:29;9.53;;;5.60;;
18076;SDS011;9165;45.714;11.362;2023-11-19T04:09:55;6.83;;;4.93;;
18076;SDS011;9165;45.714;11.362;2023-11-19T04:12:23;7.67;;;4.77;;
18076;SDS011;9165;45.714;11.362;2023-11-19T04:14:49;10.63;;;5.43;;
18076;SDS011;9165;45.714;11.362;2023-11-19T04:17:16;10.37;;;5.07;;
18076;SDS011;9165;45.714;11.362;2023-11-19T04:19:42;6.33;;;4.83;;
18076;SDS011;9165;45.714;11.362;2023-11-19T04:22:09;6.93;;;5.00;;
18076;SDS011;9165;45.714;11.362;2023-11-19T04:24:36;6.80;;;5.13;;
18076;SDS011;9165;45.714;11.362;2023-11-19T04:27:03;9.40;;;5.77;;
18076;SDS011;9165;45.714;11.362;2023-11-19T04:29:32;9.27;;;5.37;;
18076;SDS011;9165;45.714;11.362;2023-11-19T04:31:59;9.60;;;4.70;;
18076;SDS011;9165;45.714;11.362;2023-11-19T04:34:26;9.87;;;5.37;;
18076;SDS011;9165;45.714;11.362;2023-11-19T04:36:52;10.07;;;5.40;;
18076;SDS011;9165;45.714;11.362;2023-11-19T04:39:19;9.13;;;4.53;;
18076;SDS011;9165;45.714;11.362;2023-11-19T04:41:46;8.23;;;5.00;;
18076;SDS011;9165;45.714;11.362;2023-11-19T04:44:14;8.07;;;5.73;;
18076;SDS011;9165;45.714;11.362;2023-11-19T04:46:42;10.37;;;5.10;;
18076;SDS011;9165;45.714;11.362;2023-11-19T04:49:09;8.93;;;5.23;;
18076;SDS011;9165;45.714;11.362;2023-11-19T04:51:37;8.43;;;4.77;;
18076;SDS011;9165;45.714;11.362;2023-11-19T04:54:04;12.93;;;6.17;;
18076;SDS011;9165;45.714;11.362;2023-11-19T04:56:32;7.53;;;5.27;;
18076;SDS011;9165;45.714;11.362;2023-11-19T04:58:58;10.03;;;5.53;;
18076;SDS011;9165;45.714;11.362;2023-11-19T05:01:25;8.43;;;5.30;;
18076;SDS011;9165;45.714;11.362;2023-11-19T05:03:52;8.77;;;5.33;;
18076;SDS011;9165;45.714;11.362;2023-11-19T05:06:19;9.33;;;5.73;;
18076;SDS011;9165;45.714;11.362;2023-11-19T05:08:45;8.17;;;5.50;;
18076;SDS011;9165;45.714;11.362;2023-11-19T05:11:12;8.40;;;5.20;;
18076;SDS011;9165;45.714;11.362;2023-11-19T05:13:43;8.47;;;5.20;;
18076;SDS011;9165;45.714;11.362;2023-11-19T05:16:10;10.63;;;6.27;;
18076;SDS011;9165;45.714;11.362;2023-11-19T05:18:39;10.23;;;5.30;;
18076;SDS011;9165;45.714;11.362;2023-11-19T05:21:07;8.10;;;5.53;;
18076;SDS011;9165;45.714;11.362;2023-11-19T05:23:34;7.53;;;4.30;;
18076;SDS011;9165;45.714;11.362;2023-11-19T05:26:00;8.10;;;5.33;;
18076;SDS011;9165;45.714;11.362;2023-11-19T05:28:27;11.20;;;4.30;;
18076;SDS011;9165;45.714;11.362;2023-11-19T05:30:53;7.83;;;5.10;;
18076;SDS011;9165;45.714;11.362;2023-11-19T05:33:20;7.33;;;4.33;;
18076;SDS011;9165;45.714;11.362;2023-11-19T05:35:47;9.93;;;4.67;;
18076;SDS011;9165;45.714;11.362;2023-11-19T05:38:14;8.70;;;4.90;;
18076;SDS011;9165;45.714;11.362;2023-11-19T05:40:41;5.40;;;4.40;;
18076;SDS011;9165;45.714;11.362;2023-11-19T05:43:08;7.63;;;4.57;;
18076;SDS011;9165;45.714;11.362;2023-11-19T05:45:34;7.77;;;4.97;;
18076;SDS011;9165;45.714;11.362;2023-11-19T05:48:01;7.93;;;4.07;;
18076;SDS011;9165;45.714;11.362;2023-11-19T05:50:29;10.97;;;4.87;;
18076;SDS011;9165;45.714;11.362;2023-11-19T05:52:56;7.73;;;4.77;;
18076;SDS011;9165;45.714;11.362;2023-11-19T05:55:24;8.73;;;4.73;;
18076;SDS011;9165;45.714;11.362;2023-11-19T05:57:52;8.10;;;5.07;;
18076;SDS011;9165;45.714;11.362;2023-11-19T06:00:19;9.83;;;5.50;;
18076;SDS011;9165;45.714;11.362;2023-11-19T06:02:45;8.00;;;5.13;;
18076;SDS011;9165;45.714;11.362;2023-11-19T06:05:12;8.60;;;5.17;;
18076;SDS011;9165;45.714;11.362;2023-11-19T06:07:39;6.40;;;4.83;;
18076;SDS011;9165;45.714;11.362;2023-11-19T06:10:06;7.60;;;5.07;;
18076;SDS011;9165;45.714;11.362;2023-11-19T06:12:36;11.73;;;5.77;;
18076;SDS011;9165;45.714;11.362;2023-11-19T06:15:06;13.27;;;6.83;;
18076;SDS011;9165;45.714;11.362;2023-11-19T06:17:33;11.80;;;6.63;;
18076;SDS011;9165;45.714;11.362;2023-11-19T06:20:00;9.30;;;6.17;;
18076;SDS011;9165;45.714;11.362;2023-11-19T06:22:26;9.73;;;5.80;;
18076;SDS011;9165;45.714;11.362;2023-11-19T06:24:53;8.75;;;6.38;;
18076;SDS011;9165;45.714;11.362;2023-11-19T06:27:20;10.97;;;6.37;;
18076;SDS011;9165;45.714;11.362;2023-11-19T06:29:48;8.70;;;6.00;;
18076;SDS011;9165;45.714;11.362;2023-11-19T06:32:15;9.27;;;6.10;;
18076;SDS011;9165;45.714;11.362;2023-11-19T06:34:42;9.17;;;6.03;;
18076;SDS011;9165;45.714;11.362;2023-11-19T06:37:08;10.50;;;6.23;;
18076;SDS011;9165;45.714;11.362;2023-11-19T06:39:35;8.33;;;5.70;;
18076;SDS011;9165;45.714;11.362;2023-11-19T06:42:02;11.80;;;7.10;;
18076;SDS011;9165;45.714;11.362;2023-11-19T06:44:29;9.90;;;6.33;;
18076;SDS011;9165;45.714;11.362;2023-11-19T06:46:57;10.67;;;6.50;;
18076;SDS011;9165;45.714;11.362;2023-11-19T06:49:23;9.93;;;6.40;;
18076;SDS011;9165;45.714;11.362;2023-11-19T06:51:50;11.00;;;6.57;;
18076;SDS011;9165;45.714;11.362;2023-11-19T06:54:16;9.00;;;6.33;;
18076;SDS011;9165;45.714;11.362;2023-11-19T06:56:43;7.63;;;5.47;;
18076;SDS011;9165;45.714;11.362;2023-11-19T06:59:09;11.23;;;6.50;;
18076;SDS011;9165;45.714;11.362;2023-11-19T07:01:36;9.00;;;6.27;;
18076;SDS011;9165;45.714;11.362;2023-11-19T07:04:04;10.33;;;7.10;;
18076;SDS011;9165;45.714;11.362;2023-11-19T07:06:34;11.17;;;7.43;;
18076;SDS011;9165;45.714;11.362;2023-11-19T07:09:01;11.23;;;6.53;;
18076;SDS011;9165;45.714;11.362;2023-11-19T07:11:34;12.90;;;6.77;;
18076;SDS011;9165;45.714;11.362;2023-11-19T07:14:01;8.67;;;6.57;;
18076;SDS011;9165;45.714;11.362;2023-11-19T07:16:27;12.03;;;6.70;;
18076;SDS011;9165;45.714;11.362;2023-11-19T07:18:54;11.37;;;7.10;;
18076;SDS011;9165;45.714;11.362;2023-11-19T07:21:22;12.60;;;7.70;;
18076;SDS011;9165;45.714;11.362;2023-11-19T07:23:49;11.90;;;7.67;;
18076;SDS011;9165;45.714;11.362;2023-11-19T07:26:17;10.87;;;6.60;;
18076;SDS011;9165;45.714;11.362;2023-11-19T07:28:43;9.37;;;6.30;;
18076;SDS011;9165;45.714;11.362;2023-11-19T07:31:10;10.47;;;6.13;;
18076;SDS011;9165;45.714;11.362;2023-11-19T07:33:36;12.40;;;6.23;;
18076;SDS011;9165;45.714;11.362;2023-11-19T07:36:03;10.43;;;5.40;;
18076;SDS011;9165;45.714;11.362;2023-11-19T07:38:31;11.57;;;5.90;;
18076;SDS011;9165;45.714;11.362;2023-11-19T07:40:57;10.67;;;6.93;;
18076;SDS011;9165;45.714;11.362;2023-11-19T07:43:24;12.47;;;6.40;;
18076;SDS011;9165;45.714;11.362;2023-11-19T07:45:50;12.43;;;6.63;;
18076;SDS011;9165;45.714;11.362;2023-11-19T07:48:17;12.27;;;6.40;;
18076;SDS011;9165;45.714;11.362;2023-11-19T07:50:48;14.87;;;6.30;;
18076;SDS011;9165;45.714;11.362;2023-11-19T07:53:15;11.53;;;6.63;;
18076;SDS011;9165;45.714;11.362;2023-11-19T07:55:43;11.40;;;6.90;;
18076;SDS011;9165;45.714;11.362;2023-11-19T07:58:10;12.60;;;6.40;;
18076;SDS011;9165;45.714;11.362;2023-11-19T08:00:36;11.03;;;6.30;;
18076;SDS011;9165;45.714;11.362;2023-11-19T08:03:03;11.83;;;6.87;;
18076;SDS011;9165;45.714;11.362;2023-11-19T08:05:30;12.83;;;7.07;;
18076;SDS011;9165;45.714;11.362;2023-11-19T08:07:57;10.47;;;6.47;;
18076;SDS011;9165;45.714;11.362;2023-11-19T08:10:23;52.67;;;17.13;;
18076;SDS011;9165;45.714;11.362;2023-11-19T08:12:51;12.47;;;7.70;;
18076;SDS011;9165;45.714;11.362;2023-11-19T08:15:18;12.40;;;7.97;;
18076;SDS011;9165;45.714;11.362;2023-11-19T08:17:44;12.17;;;7.17;;
18076;SDS011;9165;45.714;11.362;2023-11-19T08:20:12;12.80;;;7.83;;
18076;SDS011;9165;45.714;11.362;2023-11-19T08:22:38;14.03;;;5.07;;
18076;SDS011;9165;45.714;11.362;2023-11-19T08:25:05;12.17;;;7.83;;
18076;SDS011;9165;45.714;11.362;2023-11-19T08:27:32;16.83;;;9.80;;
18076;SDS011;9165;45.714;11.362;2023-11-19T08:30:00;23.07;;;11.50;;
18076;SDS011;9165;45.714;11.362;2023-11-19T08:32:26;21.13;;;10.93;;
18076;SDS011;9165;45.714;11.362;2023-11-19T08:34:53;15.23;;;7.50;;
18076;SDS011;9165;45.714;11.362;2023-11-19T08:37:21;15.57;;;5.03;;
18076;SDS011;9165;45.714;11.362;2023-11-19T08:39:47;25.55;;;5.97;;
18076;SDS011;9165;45.714;11.362;2023-11-19T08:42:14;6.30;;;1.23;;
18076;SDS011;9165;45.714;11.362;2023-11-19T08:44:41;10.80;;;7.37;;
18076;SDS011;9165;45.714;11.362;2023-11-19T08:47:10;19.17;;;8.70;;
18076;SDS011;9165;45.714;11.362;2023-11-19T08:49:37;21.00;;;8.27;;
18076;SDS011;9165;45.714;11.362;2023-11-19T08:52:04;12.73;;;7.83;;
18076;SDS011;9165;45.714;11.362;2023-11-19T08:54:32;16.73;;;8.23;;
18076;SDS011;9165;45.714;11.362;2023-11-19T08:57:01;14.83;;;7.77;;
18076;SDS011;9165;45.714;11.362;2023-11-19T08:59:28;17.63;;;7.00;;
18076;SDS011;9165;45.714;11.362;2023-11-19T09:01:55;14.27;;;7.60;;
18076;SDS011;9165;45.714;11.362;2023-11-19T09:04:23;11.73;;;7.30;;
18076;SDS011;9165;45.714;11.362;2023-11-19T09:06:50;13.97;;;8.10;;
18076;SDS011;9165;45.714;11.362;2023-11-19T09:09:16;13.63;;;7.80;;
18076;SDS011;9165;45.714;11.362;2023-11-19T09:11:43;11.53;;;7.13;;
18076;SDS011;9165;45.714;11.362;2023-11-19T09:14:10;13.90;;;7.77;;
18076;SDS011;9165;45.714;11.362;2023-11-19T09:16:37;18.23;;;9.60;;
18076;SDS011;9165;45.714;11.362;2023-11-19T09:19:04;14.20;;;7.40;;
18076;SDS011;9165;45.714;11.362;2023-11-19T09:21:32;14.83;;;8.57;;
18076;SDS011;9165;45.714;11.362;2023-11-19T09:23:59;14.13;;;8.70;;
18076;SDS011;9165;45.714;11.362;2023-11-19T09:26:26;18.07;;;8.80;;
18076;SDS011;9165;45.714;11.362;2023-11-19T09:28:52;14.80;;;8.53;;
18076;SDS011;9165;45.714;11.362;2023-11-19T09:31:19;13.35;;;7.63;;
18076;SDS011;9165;45.714;11.362;2023-11-19T09:33:45;14.37;;;9.67;;
18076;SDS011;9165;45.714;11.362;2023-11-19T09:36:12;13.33;;;8.17;;
18076;SDS011;9165;45.714;11.362;2023-11-19T09:38:41;12.77;;;7.80;;
18076;SDS011;9165;45.714;11.362;2023-11-19T09:41:07;14.03;;;8.87;;
18076;SDS011;9165;45.714;11.362;2023-11-19T09:43:37;16.07;;;8.33;;
18076;SDS011;9165;45.714;11.362;2023-11-19T09:46:04;12.60;;;8.20;;
18076;SDS011;9165;45.714;11.362;2023-11-19T09:48:32;13.07;;;8.57;;
18076;SDS011;9165;45.714;11.362;2023-11-19T09:50:59;15.03;;;8.30;;
18076;SDS011;9165;45.714;11.362;2023-11-19T09:53:26;15.73;;;9.30;;
18076;SDS011;9165;45.714;11.362;2023-11-19T09:55:54;17.30;;;9.30;;
18076;SDS011;9165;45.714;11.362;2023-11-19T09:58:22;26.40;;;9.73;;
18076;SDS011;9165;45.714;11.362;2023-11-19T10:00:49;15.37;;;8.77;;
18076;SDS011;9165;45.714;11.362;2023-11-19T10:03:17;15.07;;;8.60;;
18076;SDS011;9165;45.714;11.362;2023-11-19T10:05:44;15.53;;;9.33;;
18076;SDS011;9165;45.714;11.362;2023-11-19T10:08:10;15.53;;;8.90;;
18076;SDS011;9165;45.714;11.362;2023-11-19T10:10:37;14.60;;;8.33;;
18076;SDS011;9165;45.714;11.362;2023-11-19T10:13:05;13.73;;;8.90;;
18076;SDS011;9165;45.714;11.362;2023-11-19T10:17:59;17.00;;;11.20;;
18076;SDS011;9165;45.714;11.362;2023-11-19T10:20:26;16.70;;;10.83;;
18076;SDS011;9165;45.714;11.362;2023-11-19T10:22:54;28.53;;;15.93;;
18076;SDS011;9165;45.714;11.362;2023-11-19T10:25:21;33.80;;;18.87;;
18076;SDS011;9165;45.714;11.362;2023-11-19T10:27:48;23.97;;;13.50;;
18076;SDS011;9165;45.714;11.362;2023-11-19T10:30:18;20.00;;;11.60;;
18076;SDS011;9165;45.714;11.362;2023-11-19T10:32:47;20.57;;;12.43;;
18076;SDS011;9165;45.714;11.362;2023-11-19T10:35:28;17.43;;;10.47;;
18076;SDS011;9165;45.714;11.362;2023-11-19T10:37:55;18.47;;;9.70;;
18076;SDS011;9165;45.714;11.362;2023-11-19T10:40:21;15.47;;;9.93;;
18076;SDS011;9165;45.714;11.362;2023-11-19T10:42:48;15.23;;;10.10;;
18076;SDS011;9165;45.714;11.362;2023-11-19T10:45:22;15.77;;;9.63;;
18076;SDS011;9165;45.714;11.362;2023-11-19T10:47:50;16.70;;;9.77;;
18076;SDS011;9165;45.714;11.362;2023-11-19T10:50:17;16.10;;;9.87;;
18076;SDS011;9165;45.714;11.362;2023-11-19T10:52:45;20.07;;;11.33;;
18076;SDS011;9165;45.714;11.362;2023-11-19T10:55:12;13.90;;;9.30;;
18076;SDS011;9165;45.714;11.362;2023-11-19T10:57:42;15.93;;;10.77;;
18076;SDS011;9165;45.714;11.362;2023-11-19T11:00:10;14.83;;;9.10;;
18076;SDS011;9165;45.714;11.362;2023-11-19T11:02:40;18.43;;;10.10;;
18076;SDS011;9165;45.714;11.362;2023-11-19T11:05:07;16.60;;;10.13;;
18076;SDS011;9165;45.714;11.362;2023-11-19T11:07:34;17.13;;;10.90;;
18076;SDS011;9165;45.714;11.362;2023-11-19T11:10:01;16.77;;;10.33;;
18076;SDS011;9165;45.714;11.362;2023-11-19T11:12:28;17.40;;;10.30;;
18076;SDS011;9165;45.714;11.362;2023-11-19T11:14:56;13.90;;;9.53;;
18076;SDS011;9165;45.714;11.362;2023-11-19T11:17:24;16.57;;;9.47;;
18076;SDS011;9165;45.714;11.362;2023-11-19T11:19:52;20.37;;;11.37;;
18076;SDS011;9165;45.714;11.362;2023-11-19T11:22:18;24.20;;;14.03;;
18076;SDS011;9165;45.714;11.362;2023-11-19T11:24:53;26.03;;;11.67;;
18076;SDS011;9165;45.714;11.362;2023-11-19T11:27:32;20.27;;;11.07;;
18076;SDS011;9165;45.714;11.362;2023-11-19T11:30:07;18.40;;;10.90;;
18076;SDS011;9165;45.714;11.362;2023-11-19T11:32:37;18.50;;;11.80;;
18076;SDS011;9165;45.714;11.362;2023-11-19T11:35:15;17.80;;;10.57;;
18076;SDS011;9165;45.714;11.362;2023-11-19T11:37:44;33.27;;;13.87;;
18076;SDS011;9165;45.714;11.362;2023-11-19T11:40:13;19.33;;;11.50;;
18076;SDS011;9165;45.714;11.362;2023-11-19T11:42:41;21.13;;;11.20;;
18076;SDS011;9165;45.714;11.362;2023-11-19T11:45:08;11.30;;;3.43;;
18076;SDS011;9165;45.714;11.362;2023-11-19T11:50:05;18.25;;;12.60;;
18076;SDS011;9165;45.714;11.362;2023-11-19T11:52:36;17.77;;;10.53;;
18076;SDS011;9165;45.714;11.362;2023-11-19T11:55:23;18.87;;;10.97;;
18076;SDS011;9165;45.714;11.362;2023-11-19T11:57:50;17.97;;;11.27;;
18076;SDS011;9165;45.714;11.362;2023-11-19T12:00:21;20.03;;;12.20;;
18076;SDS011;9165;45.714;11.362;2023-11-19T12:02:48;19.07;;;11.57;;
18076;SDS011;9165;45.714;11.362;2023-11-19T12:05:15;17.83;;;11.33;;
18076;SDS011;9165;45.714;11.362;2023-11-19T12:07:45;15.90;;;10.87;;
18076;SDS011;9165;45.714;11.362;2023-11-19T12:10:20;19.47;;;11.63;;
18076;SDS011;9165;45.714;11.362;2023-11-19T12:12:47;21.70;;;12.70;;
18076;SDS011;9165;45.714;11.362;2023-11-19T12:15:13;17.77;;;11.57;;
18076;SDS011;9165;45.714;11.362;2023-11-19T12:17:41;20.10;;;12.00;;
18076;SDS011;9165;45.714;11.362;2023-11-19T12:20:10;21.70;;;11.60;;
18076;SDS011;9165;45.714;11.362;2023-11-19T12:22:37;20.67;;;12.00;;
18076;SDS011;9165;45.714;11.362;2023-11-19T12:25:06;21.07;;;12.00;;
18076;SDS011;9165;45.714;11.362;2023-11-19T12:27:33;19.63;;;12.07;;
18076;SDS011;9165;45.714;11.362;2023-11-19T12:30:00;21.93;;;12.13;;
18076;SDS011;9165;45.714;11.362;2023-11-19T12:32:37;19.60;;;11.83;;
18076;SDS011;9165;45.714;11.362;2023-11-19T12:35:03;26.13;;;12.93;;
18076;SDS011;9165;45.714;11.362;2023-11-19T12:37:30;20.43;;;11.80;;
18076;SDS011;9165;45.714;11.362;2023-11-19T12:39:56;19.73;;;12.80;;
18076;SDS011;9165;45.714;11.362;2023-11-19T12:42:35;19.47;;;11.77;;
18076;SDS011;9165;45.714;11.362;2023-11-19T12:45:02;19.23;;;12.30;;
18076;SDS011;9165;45.714;11.362;2023-11-19T12:47:29;20.80;;;14.40;;
18076;SDS011;9165;45.714;11.362;2023-11-19T12:52:22;20.50;;;14.02;;
18076;SDS011;9165;45.714;11.362;2023-11-19T12:54:49;23.97;;;11.83;;
18076;SDS011;9165;45.714;11.362;2023-11-19T12:57:16;19.30;;;12.13;;
18076;SDS011;9165;45.714;11.362;2023-11-19T12:59:53;20.23;;;12.13;;
18076;SDS011;9165;45.714;11.362;2023-11-19T13:02:20;21.30;;;12.70;;
18076;SDS011;9165;45.714;11.362;2023-11-19T13:04:47;25.53;;;13.30;;
18076;SDS011;9165;45.714;11.362;2023-11-19T13:07:13;17.80;;;12.63;;
18076;SDS011;9165;45.714;11.362;2023-11-19T13:09:40;19.47;;;12.30;;
18076;SDS011;9165;45.714;11.362;2023-11-19T13:12:13;18.33;;;12.07;;
18076;SDS011;9165;45.714;11.362;2023-11-19T13:14:40;20.20;;;11.93;;
18076;SDS011;9165;45.714;11.362;2023-11-19T13:17:08;22.33;;;12.73;;
18076;SDS011;9165;45.714;11.362;2023-11-19T13:19:35;23.43;;;11.70;;
18076;SDS011;9165;45.714;11.362;2023-11-19T13:22:01;22.30;;;12.30;;
18076;SDS011;9165;45.714;11.362;2023-11-19T13:24:28;21.73;;;12.70;;
18076;SDS011;9165;45.714;11.362;2023-11-19T13:26:54;21.77;;;12.90;;
18076;SDS011;9165;45.714;11.362;2023-11-19T13:29:21;19.93;;;12.50;;
18076;SDS011;9165;45.714;11.362;2023-11-19T13:31:48;20.83;;;12.43;;
18076;SDS011;9165;45.714;11.362;2023-11-19T13:34:16;18.17;;;11.63;;
18076;SDS011;9165;45.714;11.362;2023-11-19T13:36:42;20.23;;;13.50;;
18076;SDS011;9165;45.714;11.362;2023-11-19T13:39:09;20.23;;;11.97;;
18076;SDS011;9165;45.714;11.362;2023-11-19T13:41:37;21.57;;;12.23;;
18076;SDS011;9165;45.714;11.362;2023-11-19T13:44:04;20.00;;;12.17;;
18076;SDS011;9165;45.714;11.362;2023-11-19T13:46:30;23.67;;;13.60;;
18076;SDS011;9165;45.714;11.362;2023-11-19T13:48:57;20.47;;;12.20;;
18076;SDS011;9165;45.714;11.362;2023-11-19T13:51:25;18.70;;;12.63;;
18076;SDS011;9165;45.714;11.362;2023-11-19T13:53:51;20.83;;;12.73;;
18076;SDS011;9165;45.714;11.362;2023-11-19T13:56:19;26.40;;;12.73;;
18076;SDS011;9165;45.714;11.362;2023-11-19T13:58:45;21.60;;;12.47;;
18076;SDS011;9165;45.714;11.362;2023-11-19T14:01:12;20.73;;;12.13;;
18076;SDS011;9165;45.714;11.362;2023-11-19T14:03:39;24.00;;;12.63;;
18076;SDS011;9165;45.714;11.362;2023-11-19T14:06:07;22.67;;;12.57;;
18076;SDS011;9165;45.714;11.362;2023-11-19T14:08:35;21.67;;;12.83;;
18076;SDS011;9165;45.714;11.362;2023-11-19T14:11:02;20.77;;;12.40;;
18076;SDS011;9165;45.714;11.362;2023-11-19T14:13:30;24.67;;;13.43;;
18076;SDS011;9165;45.714;11.362;2023-11-19T14:15:56;24.50;;;13.23;;
18076;SDS011;9165;45.714;11.362;2023-11-19T14:18:23;22.70;;;12.13;;
18076;SDS011;9165;45.714;11.362;2023-11-19T14:20:49;25.67;;;12.87;;
18076;SDS011;9165;45.714;11.362;2023-11-19T14:23:16;22.77;;;13.67;;
18076;SDS011;9165;45.714;11.362;2023-11-19T14:25:44;23.13;;;13.17;;
18076;SDS011;9165;45.714;11.362;2023-11-19T14:28:10;22.63;;;12.27;;
18076;SDS011;9165;45.714;11.362;2023-11-19T14:30:37;23.70;;;10.23;;
18076;SDS011;9165;45.714;11.362;2023-11-19T14:33:03;22.30;;;12.97;;
18076;SDS011;9165;45.714;11.362;2023-11-19T14:35:30;22.43;;;13.23;;
18076;SDS011;9165;45.714;11.362;2023-11-19T14:37:57;20.70;;;13.00;;
18076;SDS011;9165;45.714;11.362;2023-11-19T14:40:24;23.63;;;13.73;;
18076;SDS011;9165;45.714;11.362;2023-11-19T14:42:52;33.50;;;14.57;;
18076;SDS011;9165;45.714;11.362;2023-11-19T14:45:18;23.83;;;13.20;;